createdAt,value
2022-12-08T00:01:33.687Z,5.35
2022-12-08T00:04:03.305Z,4.85
2022-12-08T00:07:03.026Z,4.47
2022-12-08T00:09:39.506Z,5.13
2022-12-08T00:12:13.165Z,4.85
2022-12-08T00:14:43.353Z,5.22
2022-12-08T00:17:13.307Z,4.72
2022-12-08T00:19:42.082Z,5.40
2022-12-08T00:22:11.764Z,4.85
2022-12-08T00:24:40.771Z,5.30
2022-12-08T00:27:09.974Z,5.25
2022-12-08T00:29:37.993Z,5.57
2022-12-08T00:32:06.507Z,5.18
2022-12-08T00:34:34.566Z,5.78
2022-12-08T00:37:02.691Z,6.40
2022-12-08T00:39:30.662Z,5.75
2022-12-08T00:42:13.535Z,6.28
2022-12-08T00:44:42.916Z,7.03
2022-12-08T00:47:11.507Z,6.40
2022-12-08T00:49:39.290Z,6.38
2022-12-08T00:52:07.274Z,5.93
2022-12-08T00:54:35.734Z,6.32
2022-12-08T00:57:03.636Z,5.97
2022-12-08T00:59:31.373Z,6.72
2022-12-08T01:01:59.193Z,7.03
2022-12-08T01:04:27.068Z,6.78
2022-12-08T01:06:54.984Z,6.90
2022-12-08T01:09:23.020Z,6.60
2022-12-08T01:11:50.816Z,6.75
2022-12-08T01:14:18.921Z,7.30
2022-12-08T01:16:46.992Z,7.07
2022-12-08T01:19:15.824Z,7.25
2022-12-08T01:21:44.542Z,6.35
2022-12-08T01:24:17.581Z,7.60
2022-12-08T01:26:46.030Z,6.05
2022-12-08T01:29:14.236Z,7.13
2022-12-08T01:31:42.271Z,7.43
2022-12-08T01:34:11.250Z,6.82
2022-12-08T01:36:39.284Z,6.28
2022-12-08T01:39:09.359Z,6.10
2022-12-08T01:41:38.204Z,6.18
2022-12-08T01:44:25.816Z,6.72
2022-12-08T01:46:54.301Z,6.15
2022-12-08T01:49:28.794Z,6.50
2022-12-08T01:52:20.784Z,6.40
2022-12-08T01:54:52.717Z,6.00
2022-12-08T01:57:45.365Z,6.20
2022-12-08T02:00:15.864Z,6.22
2022-12-08T02:02:53.802Z,6.07
2022-12-08T02:05:25.157Z,6.25
2022-12-08T02:07:53.409Z,5.47
2022-12-08T02:10:23.350Z,5.63
2022-12-08T02:12:53.486Z,5.63
2022-12-08T02:15:25.990Z,6.38
2022-12-08T02:18:32.936Z,7.10
2022-12-08T02:21:03.768Z,6.18
2022-12-08T02:23:46.561Z,7.18
2022-12-08T02:26:29.819Z,7.57
2022-12-08T02:29:16.156Z,6.80
2022-12-08T02:31:58.499Z,7.15
2022-12-08T02:34:53.524Z,7.25
2022-12-08T02:37:33.354Z,6.47
2022-12-08T02:40:24.618Z,7.60
2022-12-08T02:43:43.544Z,6.55
2022-12-08T02:50:09.754Z,7.13
2022-12-08T02:52:45.943Z,6.28
2022-12-08T02:55:25.787Z,6.65
2022-12-08T02:58:20.729Z,6.75
2022-12-08T03:01:06.627Z,7.25
2022-12-08T03:03:55.106Z,6.75
2022-12-08T03:06:44.327Z,6.63
2022-12-08T03:09:31.278Z,6.93
2022-12-08T03:12:04.655Z,7.50
2022-12-08T03:14:33.009Z,6.72
2022-12-08T03:17:01.368Z,7.13
2022-12-08T03:19:33.426Z,6.32
2022-12-08T03:22:20.641Z,7.10
2022-12-08T03:24:49.393Z,6.45
2022-12-08T03:27:20.379Z,5.95
2022-12-08T03:30:01.813Z,6.35
2022-12-08T03:32:47.905Z,6.22
2022-12-08T03:35:18.406Z,6.45
2022-12-08T03:37:46.313Z,6.22
2022-12-08T03:40:16.849Z,6.88
2022-12-08T03:42:44.661Z,5.72
2022-12-08T03:45:12.597Z,5.35
2022-12-08T03:47:40.468Z,5.43
2022-12-08T03:50:08.657Z,6.82
2022-12-08T03:52:36.531Z,5.80
2022-12-08T03:55:04.466Z,5.20
2022-12-08T03:57:32.419Z,5.25
2022-12-08T04:00:00.113Z,5.57
2022-12-08T04:02:27.787Z,4.90
2022-12-08T04:04:55.514Z,5.18
2022-12-08T04:07:23.354Z,5.75
2022-12-08T04:09:51.185Z,5.22
2022-12-08T04:12:19.031Z,6.25
2022-12-08T04:14:46.827Z,4.65
2022-12-08T04:17:14.716Z,5.53
2022-12-08T04:19:42.422Z,4.90
2022-12-08T04:22:10.104Z,5.47
2022-12-08T04:24:37.907Z,5.80
2022-12-08T04:27:05.605Z,5.68
2022-12-08T04:29:33.446Z,5.40
2022-12-08T04:32:01.249Z,6.53
2022-12-08T04:34:29.212Z,5.88
2022-12-08T04:36:57.087Z,6.45
2022-12-08T04:39:25.079Z,6.95
2022-12-08T04:41:52.777Z,5.90
2022-12-08T04:44:20.410Z,5.97
2022-12-08T04:46:48.407Z,6.13
2022-12-08T04:49:16.356Z,5.95
2022-12-08T04:51:44.075Z,6.60
2022-12-08T04:54:11.958Z,6.43
2022-12-08T04:56:39.789Z,6.07
2022-12-08T04:59:07.552Z,6.07
2022-12-08T05:01:35.361Z,6.53
2022-12-08T05:04:03.181Z,6.97
2022-12-08T05:06:30.925Z,6.18
2022-12-08T05:08:58.676Z,6.40
2022-12-08T05:11:26.403Z,5.88
2022-12-08T05:13:54.213Z,5.88
2022-12-08T05:16:22.051Z,6.70
2022-12-08T05:18:50.203Z,5.47
2022-12-08T05:21:17.920Z,5.82
2022-12-08T05:23:45.704Z,5.63
2022-12-08T05:26:13.776Z,6.25
2022-12-08T05:28:42.939Z,5.43
2022-12-08T05:31:12.237Z,6.07
2022-12-08T05:33:40.274Z,6.70
2022-12-08T05:36:08.781Z,6.28
2022-12-08T05:38:37.073Z,6.38
2022-12-08T05:41:08.564Z,7.72
2022-12-08T05:43:36.952Z,7.93
2022-12-08T05:46:05.102Z,7.20
2022-12-08T05:48:32.940Z,6.90
2022-12-08T05:51:01.903Z,8.10
2022-12-08T05:53:29.995Z,6.80
2022-12-08T05:55:57.882Z,6.40
2022-12-08T05:58:25.634Z,6.95
2022-12-08T06:00:53.266Z,6.07
2022-12-08T06:03:21.177Z,7.03
2022-12-08T06:05:49.303Z,5.85
2022-12-08T06:08:17.520Z,6.70
2022-12-08T06:10:46.213Z,6.90
2022-12-08T06:13:14.973Z,5.82
2022-12-08T06:15:43.316Z,5.93
2022-12-08T06:18:12.237Z,4.93
2022-12-08T06:20:40.053Z,5.95
2022-12-08T06:23:07.914Z,5.47
2022-12-08T06:25:35.757Z,4.65
2022-12-08T06:28:06.646Z,4.90
2022-12-08T06:30:34.439Z,4.23
2022-12-08T06:33:02.188Z,4.63
2022-12-08T06:35:29.986Z,5.15
2022-12-08T06:37:57.900Z,5.60
2022-12-08T06:40:25.757Z,5.80
2022-12-08T06:42:53.584Z,5.85
2022-12-08T06:45:24.043Z,5.50
2022-12-08T06:47:51.954Z,5.57
2022-12-08T06:50:23.167Z,6.35
2022-12-08T06:53:01.012Z,6.32
2022-12-08T06:58:21.235Z,5.85
2022-12-08T07:00:49.090Z,5.50
2022-12-08T07:03:16.970Z,4.93
2022-12-08T07:05:44.837Z,4.78
2022-12-08T07:08:12.723Z,5.40
2022-12-08T07:10:40.607Z,5.20
2022-12-08T07:13:08.328Z,5.25
2022-12-08T07:15:36.192Z,5.20
2022-12-08T07:18:04.216Z,5.15
2022-12-08T07:20:32.192Z,5.07
2022-12-08T07:23:00.095Z,5.00
2022-12-08T07:25:27.917Z,5.50
2022-12-08T07:27:55.752Z,5.43
2022-12-08T07:30:23.626Z,4.78
2022-12-08T07:32:51.547Z,5.28
2022-12-08T07:35:19.551Z,5.13
2022-12-08T07:37:47.425Z,4.90
2022-12-08T07:40:15.467Z,4.30
2022-12-08T07:42:43.289Z,6.05
2022-12-08T07:45:11.507Z,4.45
2022-12-08T07:47:39.363Z,4.63
2022-12-08T07:50:08.435Z,5.00
2022-12-08T07:52:36.912Z,4.03
2022-12-08T07:55:05.100Z,4.22
2022-12-08T07:57:32.951Z,4.55
2022-12-08T08:00:00.773Z,4.40
2022-12-08T08:02:28.936Z,4.03
2022-12-08T08:04:57.051Z,4.05
2022-12-08T08:07:27.594Z,4.82
2022-12-08T08:09:55.627Z,4.20
2022-12-08T08:12:31.362Z,3.70
2022-12-08T08:15:01.018Z,4.70
2022-12-08T08:17:29.928Z,4.97
2022-12-08T08:19:58.367Z,3.95
2022-12-08T08:22:26.995Z,3.65
2022-12-08T08:24:54.931Z,3.95
2022-12-08T08:27:23.333Z,3.65
2022-12-08T08:29:51.549Z,3.28
2022-12-08T08:32:19.383Z,3.40
2022-12-08T08:34:47.302Z,3.30
2022-12-08T08:37:15.369Z,3.00
2022-12-08T08:39:43.583Z,3.47
2022-12-08T08:42:11.567Z,3.88
2022-12-08T08:44:39.453Z,3.03
2022-12-08T08:47:08.057Z,4.35
2022-12-08T08:49:35.889Z,3.53
2022-12-08T08:52:05.819Z,3.50
2022-12-08T08:54:34.201Z,3.35
2022-12-08T08:57:02.184Z,3.80
2022-12-08T08:59:30.417Z,3.40
2022-12-08T09:01:58.575Z,3.30
2022-12-08T09:04:27.737Z,3.03
2022-12-08T09:06:55.684Z,3.80
2022-12-08T09:09:23.869Z,3.38
2022-12-08T09:11:51.878Z,3.28
2022-12-08T09:14:19.807Z,3.25
2022-12-08T09:16:47.786Z,3.30
2022-12-08T09:19:15.786Z,3.47
2022-12-08T09:21:43.830Z,3.40
2022-12-08T09:24:16.039Z,3.70
2022-12-08T09:26:44.948Z,3.45
2022-12-08T09:29:14.951Z,3.97
2022-12-08T09:31:44.161Z,4.30
2022-12-08T09:34:13.423Z,3.92
2022-12-08T09:36:41.511Z,4.28
2022-12-08T09:39:09.417Z,4.07
2022-12-08T09:41:48.555Z,3.70
2022-12-08T09:44:17.451Z,3.88
2022-12-08T09:46:45.651Z,3.50
2022-12-08T09:49:16.961Z,3.10
2022-12-08T09:51:46.515Z,3.70
2022-12-08T09:54:25.419Z,3.33
2022-12-08T09:56:55.787Z,3.63
2022-12-08T09:59:27.754Z,3.30
2022-12-08T10:01:56.167Z,3.45
2022-12-08T10:04:29.823Z,3.42
2022-12-08T10:07:05.049Z,3.50
2022-12-08T10:09:46.358Z,3.20
2022-12-08T10:12:47.690Z,4.18
2022-12-08T10:15:43.393Z,4.07
2022-12-08T10:18:23.832Z,3.65
2022-12-08T10:20:52.456Z,4.07
2022-12-08T10:23:37.462Z,4.93
2022-12-08T10:26:25.302Z,3.70
2022-12-08T10:28:53.356Z,3.83
2022-12-08T10:31:23.730Z,4.13
2022-12-08T10:34:02.584Z,4.70
2022-12-08T10:36:47.392Z,4.15
2022-12-08T10:39:38.176Z,4.47
2022-12-08T10:42:26.466Z,3.95
2022-12-08T10:44:54.337Z,3.83
2022-12-08T10:47:24.125Z,3.83
2022-12-08T10:50:22.263Z,3.70
2022-12-08T10:53:00.094Z,4.13
2022-12-08T10:55:29.415Z,3.72
2022-12-08T10:57:57.338Z,3.58
2022-12-08T11:00:28.025Z,3.50
2022-12-08T11:03:04.547Z,3.77
2022-12-08T11:05:36.994Z,3.78
2022-12-08T11:08:06.626Z,3.25
2022-12-08T11:10:37.830Z,3.95
2022-12-08T11:13:07.721Z,3.72
2022-12-08T11:15:41.731Z,3.83
2022-12-08T11:18:30.640Z,3.10
2022-12-08T11:21:03.044Z,3.28
2022-12-08T11:23:31.449Z,3.17
2022-12-08T11:26:24.154Z,3.33
2022-12-08T11:28:52.281Z,3.08
2022-12-08T11:31:35.922Z,3.38
2022-12-08T11:34:04.549Z,2.85
2022-12-08T11:36:34.770Z,3.10
2022-12-08T11:39:04.613Z,3.78
2022-12-08T11:41:38.567Z,3.00
2022-12-08T11:44:22.698Z,3.45
2022-12-08T11:47:00.064Z,3.90
2022-12-08T11:49:37.715Z,3.42
2022-12-08T11:52:23.191Z,3.35
2022-12-08T11:55:01.880Z,3.10
2022-12-08T11:57:31.118Z,3.17
2022-12-08T12:00:03.601Z,3.35
2022-12-08T12:02:51.528Z,3.05
2022-12-08T12:06:09.090Z,3.60
2022-12-08T12:08:49.865Z,3.72
2022-12-08T12:12:08.105Z,3.50
2022-12-08T12:15:11.695Z,3.17
2022-12-08T12:17:49.258Z,2.75
2022-12-08T12:20:31.268Z,3.60
2022-12-08T12:25:34.145Z,3.10
2022-12-08T12:28:05.930Z,2.92
2022-12-08T12:33:18.486Z,3.13
2022-12-08T12:35:49.560Z,2.83
2022-12-08T12:38:46.653Z,2.88
2022-12-08T12:41:15.338Z,2.97
2022-12-08T12:44:08.562Z,2.35
2022-12-08T12:46:50.825Z,2.60
2022-12-08T12:49:40.812Z,2.83
2022-12-08T12:52:21.296Z,2.67
2022-12-08T12:54:52.085Z,2.60
2022-12-08T12:57:19.972Z,2.77
2022-12-08T12:59:55.798Z,2.75
2022-12-08T13:02:46.115Z,2.72
2022-12-08T13:05:21.268Z,2.50
2022-12-08T13:08:03.207Z,2.15
2022-12-08T13:13:18.067Z,2.20
2022-12-08T13:15:54.616Z,2.33
2022-12-08T13:18:27.135Z,2.17
2022-12-08T13:21:10.154Z,2.55
2022-12-08T13:23:38.246Z,2.17
2022-12-08T13:26:19.509Z,2.30
2022-12-08T13:29:03.936Z,2.83
2022-12-08T13:31:49.805Z,2.65
2022-12-08T13:34:53.614Z,2.17
2022-12-08T13:37:52.366Z,2.67
2022-12-08T13:40:26.332Z,2.40
2022-12-08T13:46:10.920Z,2.42
2022-12-08T13:49:13.597Z,2.30
2022-12-08T13:53:22.492Z,2.60
2022-12-08T13:55:49.526Z,2.35
2022-12-08T13:57:36.395Z,2.40
2022-12-08T14:00:15.431Z,1.92
2022-12-08T14:02:47.990Z,2.40
2022-12-08T14:05:34.894Z,1.75
2022-12-08T14:09:06.719Z,2.50
2022-12-08T14:11:38.453Z,2.25
2022-12-08T14:14:32.699Z,2.85
2022-12-08T14:17:34.633Z,2.35
2022-12-08T14:20:12.710Z,2.15
2022-12-08T14:22:41.656Z,1.98
2022-12-08T14:25:15.368Z,1.98
2022-12-08T14:27:43.642Z,2.13
2022-12-08T14:30:14.634Z,2.50
2022-12-08T14:32:53.152Z,2.20
2022-12-08T14:35:24.206Z,2.40
2022-12-08T14:38:00.872Z,2.35
2022-12-08T14:40:35.457Z,2.65
2022-12-08T14:43:13.999Z,2.10
2022-12-08T14:45:41.926Z,2.20
2022-12-08T14:48:27.497Z,2.20
2022-12-08T14:50:59.645Z,2.38
2022-12-08T14:53:50.039Z,2.35
2022-12-08T14:56:19.900Z,2.20
2022-12-08T14:59:03.606Z,2.17
2022-12-08T15:01:32.069Z,2.05
2022-12-08T15:04:15.098Z,2.10
2022-12-08T15:07:19.780Z,1.95
2022-12-08T15:09:50.318Z,2.00
2022-12-08T15:12:27.088Z,2.13
2022-12-08T15:15:01.754Z,1.90
2022-12-08T15:17:36.666Z,2.00
2022-12-08T15:20:05.438Z,2.08
2022-12-08T15:22:33.951Z,2.05
2022-12-08T15:25:01.981Z,2.17
2022-12-08T15:27:29.900Z,1.75
2022-12-08T15:29:57.831Z,2.15
2022-12-08T15:32:25.835Z,2.28
2022-12-08T15:34:53.719Z,2.25
2022-12-08T15:37:26.730Z,2.20
2022-12-08T15:39:55.131Z,2.33
2022-12-08T15:42:23.077Z,2.80
2022-12-08T15:44:50.949Z,2.72
2022-12-08T15:47:21.147Z,2.30
2022-12-08T15:49:50.205Z,2.70
2022-12-08T15:52:21.705Z,2.22
2022-12-08T15:54:50.140Z,3.13
2022-12-08T15:57:44.129Z,2.60
2022-12-08T16:09:18.554Z,2.42
2022-12-08T16:12:07.213Z,2.58
2022-12-08T16:17:23.702Z,2.55
2022-12-08T16:19:51.663Z,2.78
2022-12-08T16:25:19.396Z,2.60
2022-12-08T16:28:37.061Z,2.63
2022-12-08T16:30:40.149Z,2.60
2022-12-08T16:33:08.340Z,3.03
2022-12-08T16:35:36.100Z,2.97
2022-12-08T16:38:04.310Z,3.35
2022-12-08T16:40:32.337Z,2.85
2022-12-08T16:43:00.030Z,3.13
2022-12-08T16:45:31.499Z,3.45
2022-12-08T16:48:00.790Z,3.85
2022-12-08T16:50:36.031Z,3.92
2022-12-08T16:53:07.313Z,3.83
2022-12-08T16:55:35.619Z,3.90
2022-12-08T16:58:03.871Z,4.88
2022-12-08T17:00:37.293Z,4.38
2022-12-08T17:03:08.101Z,4.97
2022-12-08T17:05:35.829Z,4.82
2022-12-08T17:08:04.247Z,4.35
2022-12-08T17:10:34.524Z,3.97
2022-12-08T17:13:02.934Z,3.72
2022-12-08T17:15:30.722Z,3.92
2022-12-08T17:17:58.433Z,3.53
2022-12-08T17:20:28.125Z,3.45
2022-12-08T17:22:58.088Z,3.50
2022-12-08T17:25:27.174Z,3.47
2022-12-08T17:27:56.609Z,3.03
2022-12-08T17:30:24.764Z,2.97
2022-12-08T17:32:53.058Z,2.45
2022-12-08T17:35:21.013Z,2.92
2022-12-08T17:37:49.193Z,3.22
2022-12-08T17:40:17.009Z,3.83
2022-12-08T17:42:46.604Z,3.80
2022-12-08T17:45:14.471Z,3.13
2022-12-08T17:47:42.459Z,4.00
2022-12-08T17:50:10.746Z,3.63
2022-12-08T17:52:39.195Z,3.58
2022-12-08T17:55:08.202Z,3.85
2022-12-08T17:57:35.881Z,3.90
2022-12-08T18:00:05.171Z,3.85
2022-12-08T18:02:39.594Z,4.53
2022-12-08T18:05:07.731Z,3.78
2022-12-08T18:07:35.473Z,5.45
2022-12-08T18:10:03.735Z,5.10
2022-12-08T18:12:32.145Z,4.15
2022-12-08T18:15:00.131Z,5.88
2022-12-08T18:17:28.026Z,6.20
2022-12-08T18:19:56.066Z,4.95
2022-12-08T18:22:24.358Z,5.43
2022-12-08T18:24:52.141Z,5.03
2022-12-08T18:27:20.164Z,4.07
2022-12-08T18:29:47.904Z,4.10
2022-12-08T18:32:15.613Z,3.90
2022-12-08T18:34:43.446Z,3.90
2022-12-08T18:37:11.186Z,4.10
2022-12-08T18:39:39.041Z,4.22
2022-12-08T18:42:24.881Z,3.55
2022-12-08T18:45:01.956Z,4.28
2022-12-08T18:47:34.333Z,3.58
2022-12-08T18:50:02.124Z,3.70
2022-12-08T18:52:32.192Z,4.20
2022-12-08T18:55:08.075Z,4.20
2022-12-08T18:57:38.908Z,4.07
2022-12-08T19:00:08.535Z,3.75
2022-12-08T19:02:37.564Z,3.78
2022-12-08T19:05:06.993Z,4.40
2022-12-08T19:07:34.919Z,4.07
2022-12-08T19:10:02.865Z,4.47
2022-12-08T19:12:30.660Z,4.90
2022-12-08T19:14:58.602Z,5.35
2022-12-08T19:17:26.378Z,6.82
2022-12-08T19:19:54.298Z,8.40
2022-12-08T19:22:22.088Z,9.63
2022-12-08T19:24:50.115Z,8.68
2022-12-08T19:27:18.810Z,10.02
2022-12-08T19:29:46.716Z,8.45
2022-12-08T19:32:15.858Z,9.32
2022-12-08T19:34:43.700Z,11.23
2022-12-08T19:37:13.318Z,8.75
2022-12-08T19:39:59.722Z,6.80
2022-12-08T19:42:45.863Z,7.10
2022-12-08T19:45:21.280Z,6.70
2022-12-08T19:47:49.358Z,6.03
2022-12-08T19:50:36.320Z,5.28
2022-12-08T19:53:14.107Z,5.10
2022-12-08T19:55:43.422Z,4.70
2022-12-08T19:58:11.627Z,5.18
2022-12-08T20:00:44.017Z,5.03
2022-12-08T20:03:16.364Z,4.43
2022-12-08T20:05:44.987Z,4.47
2022-12-08T20:08:12.852Z,4.38
2022-12-08T20:10:42.678Z,4.95
2022-12-08T20:13:30.102Z,4.47
2022-12-08T20:15:58.339Z,5.68
2022-12-08T20:18:29.057Z,5.65
2022-12-08T20:20:57.250Z,5.70
2022-12-08T20:23:25.064Z,5.20
2022-12-08T20:25:52.929Z,4.63
2022-12-08T20:28:20.884Z,4.70
2022-12-08T20:30:49.272Z,4.72
2022-12-08T20:33:18.672Z,5.35
2022-12-08T20:35:47.243Z,5.00
2022-12-08T20:38:15.202Z,4.60
2022-12-08T20:40:47.656Z,5.28
2022-12-08T20:43:15.454Z,4.20
2022-12-08T20:45:43.476Z,5.00
2022-12-08T20:48:11.627Z,4.80
2022-12-08T20:50:39.440Z,5.53
2022-12-08T20:53:07.370Z,4.63
2022-12-08T20:55:38.288Z,4.88
2022-12-08T20:58:06.126Z,5.30
2022-12-08T21:00:34.135Z,6.05
2022-12-08T21:03:02.177Z,4.50
2022-12-08T21:05:30.229Z,4.80
2022-12-08T21:07:58.213Z,4.85
2022-12-08T21:10:28.596Z,5.13
2022-12-08T21:12:56.672Z,5.00
2022-12-08T21:15:24.675Z,5.03
2022-12-08T21:17:52.693Z,5.70
2022-12-08T21:20:21.160Z,4.80
2022-12-08T21:22:49.123Z,4.93
2022-12-08T21:25:17.126Z,5.30
2022-12-08T21:27:44.866Z,5.65
2022-12-08T21:30:13.313Z,4.53
2022-12-08T21:32:41.337Z,5.25
2022-12-08T21:35:09.644Z,5.07
2022-12-08T21:37:37.784Z,4.93
2022-12-08T21:40:07.682Z,5.07
2022-12-08T21:42:44.988Z,5.53
2022-12-08T21:45:15.478Z,6.20
2022-12-08T21:47:44.156Z,4.15
2022-12-08T21:50:13.001Z,5.28
2022-12-08T21:52:42.777Z,5.25
2022-12-08T21:55:13.431Z,6.47
2022-12-08T21:57:42.053Z,5.75
2022-12-08T22:00:12.508Z,5.80
2022-12-08T22:02:40.674Z,4.85
2022-12-08T22:05:09.278Z,5.95
2022-12-08T22:07:39.557Z,5.43
2022-12-08T22:10:09.375Z,5.13
2022-12-08T22:12:38.202Z,5.78
2022-12-08T22:15:07.575Z,5.65
2022-12-08T22:17:40.847Z,4.53
2022-12-08T22:20:12.814Z,5.05
2022-12-08T22:22:41.343Z,5.47
2022-12-08T22:25:12.437Z,5.20
2022-12-08T22:27:41.772Z,4.88
2022-12-08T22:30:11.082Z,5.68
2022-12-08T22:32:40.044Z,4.65
2022-12-08T22:35:08.141Z,6.05
2022-12-08T22:37:35.892Z,6.40
2022-12-08T22:40:04.450Z,6.13
2022-12-08T22:42:32.463Z,5.25
2022-12-08T22:45:00.487Z,4.88
2022-12-08T22:47:28.466Z,5.30
2022-12-08T22:49:56.378Z,5.07
2022-12-08T22:52:24.311Z,5.82
2022-12-08T22:54:52.083Z,5.57
2022-12-08T22:57:20.437Z,5.97
2022-12-08T22:59:48.312Z,5.75
2022-12-08T23:02:16.330Z,6.45
2022-12-08T23:04:46.815Z,6.00
2022-12-08T23:07:15.032Z,6.72
2022-12-08T23:09:43.814Z,7.45
2022-12-08T23:12:11.718Z,7.70
2022-12-08T23:14:39.657Z,8.20
2022-12-08T23:17:07.651Z,7.93
2022-12-08T23:19:37.302Z,9.70
2022-12-08T23:22:05.363Z,11.27
2022-12-08T23:24:33.537Z,9.85
2022-12-08T23:27:01.715Z,7.45
2022-12-08T23:29:29.884Z,7.25
2022-12-08T23:31:57.846Z,6.97
2022-12-08T23:34:25.807Z,6.93
2022-12-08T23:36:53.889Z,7.75
2022-12-08T23:39:24.259Z,8.77
2022-12-08T23:41:52.789Z,9.27
2022-12-08T23:44:20.828Z,8.40
2022-12-08T23:46:49.010Z,7.03
2022-12-08T23:49:17.208Z,7.60
2022-12-08T23:51:45.258Z,7.32
2022-12-08T23:54:13.361Z,6.85
2022-12-08T23:56:41.771Z,7.28
2022-12-08T23:59:10.159Z,6.25
